Atmospheric History
01/16/2019 04:41  to  1/17/2019 04:41
Change End Date:
To complete the export process:
1) Select all of the data below
2) Copy the data to the clipboard
3) Open a word processor such as Notepad
4) Paste the data into the word processor
5) Save the file

Date/Time (MST), AirTemp, RH, Dewpoint ,AvgWindSpeed, GustWindSpeed, WindDirection, PrecipType, PrecipIntensity, PrecipAccumulation, PrecipRate ,Visibility
01/17/2019 04:38, 25, 76, 19 ,4, 5, W, None, None, ,   ,
01/17/2019 04:28, 25, 77, 19 ,4, 6, W, None, None, ,   ,
01/17/2019 04:27, 25, 77, 19 ,4, 6, W, None, None, ,   ,
01/17/2019 04:18, 25, 77, 19 ,5, 8, W, None, None, ,   ,
01/17/2019 04:12, 25, 77, 19 ,7, 7, W, None, None, ,   ,
01/17/2019 04:08, 25, 78, 19 ,6, 7, W, None, None, ,   ,
01/17/2019 03:58, 24, 79, 19 ,4, 6, W, None, None, ,   ,
01/17/2019 03:57, 24, 79, 19 ,4, 6, W, None, None, ,   ,
01/17/2019 03:48, 23, 79, 18 ,5, 7, W, None, None, ,   ,
01/17/2019 03:42, 24, 79, 18 ,7, 7, W, None, None, ,   ,
01/17/2019 03:38, 24, 79, 18 ,6, 7, W, None, None, ,   ,
01/17/2019 03:28, 24, 80, 18 ,6, 6, W, None, None, ,   ,
01/17/2019 03:27, 24, 80, 18 ,6, 6, W, None, None, ,   ,
01/17/2019 03:18, 24, 80, 18 ,6, 6, W, None, None, ,   ,
01/17/2019 03:12, 23, 81, 18 ,6, 6, W, None, None, ,   ,
01/17/2019 03:08, 22, 81, 18 ,5, 6, W, None, None, ,   ,
01/17/2019 02:58, 22, 80, 17 ,6, 7, W, None, None, ,   ,
01/17/2019 02:57, 22, 80, 17 ,6, 7, W, None, None, ,   ,
01/17/2019 02:48, 22, 79, 17 ,6, 7, SW, None, None, ,   ,
01/17/2019 02:43, 23, 78, 17 ,6, 6, W, None, None, ,   ,
01/17/2019 02:38, 24, 78, 18 ,4, 5, W, None, None, ,   ,
01/17/2019 02:28, 24, 78, 18 ,4, 4, W, None, None, ,   ,
01/17/2019 02:27, 24, 78, 18 ,4, 4, W, None, None, ,   ,
01/17/2019 02:18, 24, 79, 18 ,4, 6, W, None, None, ,   ,
01/17/2019 02:13, 23, 79, 18 ,4, 6, W, None, None, ,   ,
01/17/2019 02:08, 23, 78, 17 ,6, 6, W, None, None, ,   ,
01/17/2019 01:58, 24, 78, 18 ,4, 6, W, None, None, ,   ,
01/17/2019 01:47, 24, 78, 18 ,4, 6, W, None, None, ,   ,
01/17/2019 01:43, 24, 78, 18 ,5, 7, W, None, None, ,   ,
01/17/2019 01:37, 23, 78, 17 ,6, 7, W, None, None, ,   ,
01/17/2019 01:28, 23, 78, 17 ,4, 4, W, None, None, ,   ,
01/17/2019 01:27, 23, 78, 17 ,4, 4, W, None, None, ,   ,
01/17/2019 01:17, 24, 78, 19 ,0, 3, W, None, None, ,   ,
01/17/2019 01:13, 24, 78, 19 ,3, 5, W, None, None, ,   ,
01/17/2019 01:07, 24, 78, 18 ,3, 5, W, None, None, ,   ,
01/17/2019 00:58, 22, 77, 17 ,4, 5, W, None, None, ,   ,
01/17/2019 00:57, 22, 77, 17 ,4, 5, W, None, None, ,   ,
01/17/2019 00:47, 24, 75, 18 ,4, 6, W, None, None, ,   ,
01/17/2019 00:43, 25, 75, 18 ,4, 4, W, None, None, ,   ,
01/17/2019 00:37, 26, 75, 19 ,3, 4, NW, None, None, ,   ,
01/17/2019 00:28, 25, 76, 19 ,3, 4, W, None, None, ,   ,
01/17/2019 00:27, 26, 76, 19 ,3, 4, W, None, None, ,   ,
01/17/2019 00:17, 23, 77, 17 ,4, 6, W, None, None, ,   ,
01/17/2019 00:13, 23, 77, 17 ,6, 6, W, None, None, ,   ,
01/17/2019 00:07, 23, 77, 17 ,4, 6, W, None, None, ,   ,
01/16/2019 23:58, 23, 75, 16 ,6, 7, W, None, None, ,   ,
01/16/2019 23:57, 23, 75, 16 ,6, 7, W, None, None, ,   ,
01/16/2019 23:47, 25, 72, 18 ,6, 7, W, None, None, ,   ,
01/16/2019 23:43, 28, 73, 20 ,3, 4, N, None, None, ,   ,
01/16/2019 23:37, 26, 75, 19 ,1, 2, W, None, None, ,   ,
01/16/2019 23:27, 24, 74, 17 ,3, 4, W, None, None, ,   ,
01/16/2019 23:26, 24, 74, 17 ,3, 5, W, None, None, ,   ,
01/16/2019 23:17, 25, 72, 18 ,5, 6, W, None, None, ,   ,
01/16/2019 23:13, 26, 73, 18 ,4, 4, W, None, None, ,   ,
01/16/2019 23:07, 26, 73, 18 ,4, 6, W, None, None, ,   ,
01/16/2019 22:58, 26, 72, 18 ,5, 6, W, None, None, ,   ,
01/16/2019 22:57, 26, 72, 18 ,4, 6, W, None, None, ,   ,
01/16/2019 22:47, 25, 72, 18 ,1, 4, W, None, None, ,   ,
01/16/2019 22:43, 25, 72, 17 ,4, 4, W, None, None, ,   ,
01/16/2019 22:37, 25, 72, 18 ,4, 6, W, None, None, ,   ,
01/16/2019 22:28, 24, 73, 17 ,4, 7, W, None, None, ,   ,
01/16/2019 22:27, 24, 73, 17 ,3, 7, W, None, None, ,   ,
01/16/2019 22:16, 24, 73, 17 ,7, 9, W, None, None, ,   ,
01/16/2019 22:13, 25, 72, 17 ,8, 9, W, None, None, ,   ,
01/16/2019 22:06, 24, 72, 17 ,7, 8, W, None, None, ,   ,
01/16/2019 21:58, 25, 71, 17 ,6, 9, W, None, None, ,   ,
01/16/2019 21:56, 25, 71, 17 ,7, 9, W, None, None, ,   ,
01/16/2019 21:46, 25, 70, 17 ,4, 7, W, None, None, ,   ,
01/16/2019 21:43, 25, 69, 17 ,3, 4, W, None, None, ,   ,
01/16/2019 21:36, 25, 69, 17 ,4, 6, W, None, None, ,   ,
01/16/2019 21:28, 27, 67, 17 ,4, 6, W, None, None, ,   ,
01/16/2019 21:26, 27, 67, 18 ,4, 6, SW, None, None, ,   ,
01/16/2019 21:16, 27, 68, 18 ,1, 3, W, None, None, ,   ,
01/16/2019 21:13, 27, 68, 18 ,3, 3, W, None, None, ,   ,
01/16/2019 21:06, 26, 68, 17 ,2, 3, W, None, None, ,   ,
01/16/2019 20:58, 26, 68, 17 ,3, 4, W, None, None, ,   ,
01/16/2019 20:56, 26, 68, 17 ,3, 4, W, None, None, ,   ,
01/16/2019 20:46, 26, 68, 17 ,4, 7, W, None, None, ,   ,
01/16/2019 20:43, 26, 68, 17 ,4, 7, SW, None, None, ,   ,
01/16/2019 20:36, 26, 67, 17 ,4, 6, W, None, None, ,   ,
01/16/2019 20:28, 27, 67, 17 ,4, 7, W, None, None, ,   ,
01/16/2019 20:26, 27, 67, 17 ,6, 7, W, None, None, ,   ,
01/16/2019 20:16, 27, 67, 17 ,4, 6, W, None, None, ,   ,
01/16/2019 20:13, 27, 67, 17 ,4, 6, W, None, None, ,   ,
01/16/2019 20:06, 26, 68, 17 ,5, 6, W, None, None, ,   ,
01/16/2019 19:58, 26, 68, 17 ,5, 6, W, None, None, ,   ,
01/16/2019 19:56, 26, 68, 17 ,5, 6, W, None, None, ,   ,
01/16/2019 19:46, 25, 68, 16 ,6, 7, SW, None, None, ,   ,
01/16/2019 19:43, 25, 68, 16 ,6, 7, W, None, None, ,   ,
01/16/2019 19:36, 25, 67, 16 ,6, 7, W, None, None, ,   ,
01/16/2019 19:28, 27, 66, 17 ,6, 6, W, None, None, ,   ,
01/16/2019 19:26, 27, 66, 17 ,5, 6, W, None, None, ,   ,
01/16/2019 19:16, 27, 66, 17 ,5, 6, SW, None, None, ,   ,
01/16/2019 19:13, 26, 66, 17 ,6, 6, SW, None, None, ,   ,
01/16/2019 19:06, 26, 66, 17 ,4, 6, W, None, None, ,   ,
01/16/2019 18:58, 26, 66, 17 ,4, 7, W, None, None, ,   ,
01/16/2019 18:56, 26, 66, 17 ,5, 7, W, None, None, ,   ,
01/16/2019 18:46, 26, 66, 17 ,6, 7, SW, None, None, ,   ,
01/16/2019 18:43, 26, 66, 16 ,6, 7, SW, None, None, ,   ,
01/16/2019 18:36, 26, 65, 16 ,7, 7, W, None, None, ,   ,
01/16/2019 18:28, 27, 64, 16 ,7, 8, W, None, None, ,   ,
01/16/2019 18:26, 27, 64, 17 ,7, 8, W, None, None, ,   ,
01/16/2019 18:16, 28, 63, 17 ,6, 7, W, None, None, ,   ,
01/16/2019 18:13, 27, 63, 17 ,5, 7, W, None, None, ,   ,
01/16/2019 18:05, 27, 63, 16 ,6, 6, SW, None, None, ,   ,
01/16/2019 17:58, 27, 63, 16 ,6, 6, W, None, None, ,   ,
01/16/2019 17:55, 27, 62, 16 ,6, 6, W, None, None, ,   ,
01/16/2019 17:45, 27, 62, 16 ,4, 5, W, None, None, ,   ,
01/16/2019 17:42, 27, 62, 16 ,4, 4, W, None, None, ,   ,
01/16/2019 17:35, 27, 61, 16 ,3, 4, W, None, None, ,   ,
01/16/2019 17:28, 28, 60, 16 ,4, 6, W, None, None, ,   ,
01/16/2019 17:25, 28, 60, 16 ,4, 6, W, None, None, ,   ,
01/16/2019 17:15, 28, 60, 16 ,4, 5, W, None, None, ,   ,
01/16/2019 17:12, 28, 60, 16 ,4, 5, W, None, None, ,   ,
01/16/2019 17:05, 29, 59, 17 ,4, 5, W, None, None, ,   ,
01/16/2019 16:58, 29, 58, 16 ,4, 5, W, None, None, ,   ,
01/16/2019 16:55, 29, 58, 16 ,4, 6, W, None, None, ,   ,
01/16/2019 16:45, 30, 57, 17 ,4, 7, W, None, None, ,   ,
01/16/2019 16:42, 30, 56, 17 ,5, 7, W, None, None, ,   ,
01/16/2019 16:35, 31, 55, 17 ,4, 6, W, None, None, ,   ,
01/16/2019 16:27, 31, 53, 17 ,5, 6, W, None, None, ,   ,
01/16/2019 16:25, 31, 53, 17 ,5, 6, W, None, None, ,   ,
01/16/2019 16:15, 32, 52, 17 ,5, 6, W, None, None, ,   ,
01/16/2019 16:12, 33, 52, 17 ,4, 6, W, None, None, ,   ,
01/16/2019 16:05, 33, 52, 17 ,4, 4, SW, None, None, ,   ,
01/16/2019 15:57, 33, 52, 17 ,4, 4, NW, None, None, ,   ,
01/16/2019 15:55, 33, 52, 17 ,4, 4, NW, None, None, ,   ,
01/16/2019 15:45, 33, 51, 17 ,3, 5, W, None, None, ,   ,
01/16/2019 15:42, 33, 50, 17 ,3, 4, W, None, None, ,   ,
01/16/2019 15:35, 34, 49, 17 ,4, 6, W, None, None, ,   ,
01/16/2019 15:27, 34, 49, 17 ,6, 7, W, None, None, ,   ,
01/16/2019 15:25, 34, 49, 17 ,6, 7, W, None, None, ,   ,
01/16/2019 15:15, 34, 50, 17 ,6, 7, W, None, None, ,   ,
01/16/2019 15:12, 34, 50, 17 ,7, 8, W, None, None, ,   ,
01/16/2019 15:05, 34, 50, 17 ,6, 9, W, None, None, ,   ,
01/16/2019 14:57, 33, 51, 17 ,7, 9, W, None, None, ,   ,
01/16/2019 14:55, 33, 50, 17 ,8, 9, W, None, None, ,   ,
01/16/2019 14:45, 33, 49, 17 ,7, 10, W, None, None, ,   ,
01/16/2019 14:42, 33, 49, 17 ,7, 11, W, None, None, ,   ,
01/16/2019 14:35, 33, 50, 17 ,8, 11, SW, None, None, ,   ,
01/16/2019 14:27, 33, 50, 17 ,7, 9, SW, None, None, ,   ,
01/16/2019 14:25, 33, 50, 17 ,7, 9, SW, None, None, ,   ,
01/16/2019 14:15, 34, 50, 17 ,7, 10, SW, None, None, ,   ,
01/16/2019 14:12, 34, 50, 17 ,8, 10, SW, None, None, ,   ,
01/16/2019 14:05, 34, 50, 17 ,8, 9, W, None, None, ,   ,
01/16/2019 13:57, 34, 49, 17 ,7, 8, W, None, None, ,   ,
01/16/2019 13:55, 34, 49, 17 ,6, 7, W, None, None, ,   ,
01/16/2019 13:45, 34, 50, 17 ,6, 8, W, None, None, ,   ,
01/16/2019 13:42, 33, 50, 17 ,6, 8, W, None, None, ,   ,
01/16/2019 13:35, 34, 49, 17 ,6, 7, W, None, None, ,   ,
01/16/2019 13:27, 34, 49, 17 ,6, 6, W, None, None, ,   ,
01/16/2019 13:24, 34, 49, 17 ,4, 7, W, None, None, ,   ,
01/16/2019 13:14, 33, 50, 17 ,5, 7, W, None, None, ,   ,
01/16/2019 13:12, 33, 51, 17 ,5, 7, W, None, None, ,   ,
01/16/2019 13:04, 33, 52, 17 ,6, 7, W, None, None, ,   ,
01/16/2019 12:57, 32, 53, 17 ,6, 6, W, None, None, ,   ,
01/16/2019 12:54, 32, 53, 17 ,6, 6, W, None, None, ,   ,
01/16/2019 12:44, 31, 54, 17 ,6, 6, W, None, None, ,   ,
01/16/2019 12:42, 31, 55, 17 ,6, 7, W, None, None, ,   ,
01/16/2019 12:34, 30, 57, 17 ,6, 7, W, None, None, ,   ,
01/16/2019 12:28, 30, 59, 17 ,6, 8, SW, None, None, ,   ,
01/16/2019 12:24, 29, 60, 17 ,7, 8, SW, None, None, ,   ,
01/16/2019 12:14, 28, 61, 17 ,7, 9, W, None, None, ,   ,
01/16/2019 12:12, 29, 60, 17 ,7, 9, W, None, None, ,   ,
01/16/2019 12:04, 28, 61, 17 ,7, 9, W, None, None, ,   ,
01/16/2019 11:57, 29, 60, 17 ,7, 7, W, None, None, ,   ,
01/16/2019 11:54, 29, 60, 17 ,7, 7, W, None, None, ,   ,
01/16/2019 11:44, 29, 60, 17 ,6, 7, W, None, None, ,   ,
01/16/2019 11:42, 29, 60, 17 ,6, 7, W, None, None, ,   ,
01/16/2019 11:34, 29, 61, 17 ,6, 8, W, None, None, ,   ,
01/16/2019 11:27, 29, 62, 18 ,7, 9, W, None, None, ,   ,
01/16/2019 11:24, 29, 63, 18 ,6, 9, W, None, None, ,   ,
01/16/2019 11:14, 26, 68, 17 ,7, 8, W, None, None, ,   ,
01/16/2019 11:12, 26, 68, 17 ,7, 8, W, None, None, ,   ,
01/16/2019 11:04, 27, 68, 18 ,7, 7, W, None, None, ,   ,
01/16/2019 10:57, 26, 69, 18 ,7, 7, W, None, None, ,   ,
01/16/2019 10:54, 26, 70, 18 ,6, 7, W, None, None, ,   ,
01/16/2019 10:44, 25, 73, 18 ,6, 7, W, None, None, ,   ,
01/16/2019 10:42, 25, 73, 18 ,7, 7, W, None, None, ,   ,
01/16/2019 10:34, 24, 77, 18 ,6, 7, W, None, None, ,   ,
01/16/2019 10:27, 22, 80, 17 ,6, 8, W, None, None, ,   ,
01/16/2019 10:24, 21, 81, 17 ,7, 8, W, None, None, ,   ,
01/16/2019 10:14, 20, 83, 15 ,7, 8, W, None, None, ,   ,
01/16/2019 10:12, 20, 83, 15 ,7, 8, W, None, None, ,   ,
01/16/2019 10:04, 19, 83, 15 ,7, 8, W, None, None, ,   ,
01/16/2019 09:57, 19, 84, 15 ,7, 8, W, None, None, ,   ,
01/16/2019 09:54, 18, 84, 14 ,7, 8, W, None, None, ,   ,
01/16/2019 09:44, 19, 84, 15 ,6, 7, W, None, None, ,   ,
01/16/2019 09:43, 18, 84, 15 ,7, 7, W, None, None, ,   ,
01/16/2019 09:34, 18, 84, 15 ,6, 7, W, None, None, ,   ,
01/16/2019 09:27, 18, 84, 14 ,6, 6, W, None, None, ,   ,
01/16/2019 09:24, 18, 85, 15 ,6, 6, W, None, None, ,   ,
01/16/2019 09:14, 19, 86, 15 ,6, 6, W, None, None, ,   ,
01/16/2019 09:13, 19, 86, 15 ,6, 7, W, None, None, ,   ,
01/16/2019 09:04, 18, 87, 15 ,6, 7, W, None, None, ,   ,
01/16/2019 08:57, 18, 88, 15 ,6, 7, W, None, None, ,   ,
01/16/2019 08:54, 18, 88, 15 ,7, 7, W, None, None, ,   ,
01/16/2019 08:44, 17, 89, 15 ,6, 8, SW, None, None, ,   ,
01/16/2019 08:43, 17, 89, 14 ,6, 8, SW, None, None, ,   ,
01/16/2019 08:34, 15, 89, 13 ,7, 7, SW, None, None, ,   ,
01/16/2019 08:27, 15, 89, 13 ,7, 7, W, None, None, ,   ,
01/16/2019 08:23, 15, 89, 13 ,7, 7, SW, None, None, ,   ,
01/16/2019 08:13, 15, 89, 12 ,7, 7, W, None, None, ,   ,
01/16/2019 08:12, 15, 89, 12 ,7, 7, W, None, None, ,   ,
01/16/2019 08:03, 15, 88, 12 ,7, 8, W, None, None, ,   ,
01/16/2019 07:57, 16, 88, 13 ,7, 7, W, None, None, ,   ,
01/16/2019 07:53, 16, 88, 13 ,7, 7, W, None, None, ,   ,
01/16/2019 07:43, 17, 88, 14 ,7, 9, W, None, None, ,   ,
01/16/2019 07:43, 17, 88, 14 ,7, 9, W, None, None, ,   ,
01/16/2019 07:33, 16, 88, 14 ,7, 9, SW, None, None, ,   ,
01/16/2019 07:28, 15, 88, 13 ,7, 9, W, None, None, ,   ,
01/16/2019 07:23, 16, 88, 13 ,8, 9, W, None, None, ,   ,
01/16/2019 07:13, 16, 88, 13 ,7, 9, W, None, None, ,   ,
01/16/2019 07:12, 16, 88, 13 ,7, 9, W, None, None, ,   ,
01/16/2019 07:03, 16, 87, 13 ,7, 9, W, None, None, ,   ,
01/16/2019 06:58, 15, 87, 12 ,7, 9, W, None, None, ,   ,
01/16/2019 06:53, 16, 87, 13 ,7, 9, W, None, None, ,   ,
01/16/2019 06:43, 16, 87, 13 ,7, 9, SW, None, None, ,   ,
01/16/2019 06:43, 16, 87, 13 ,7, 9, SW, None, None, ,   ,
01/16/2019 06:33, 17, 87, 14 ,7, 8, SW, None, None, ,   ,
01/16/2019 06:28, 18, 88, 15 ,7, 9, SW, None, None, ,   ,
01/16/2019 06:23, 17, 88, 15 ,7, 9, SW, None, None, ,   ,
01/16/2019 06:13, 17, 89, 14 ,7, 8, W, None, None, ,   ,
01/16/2019 06:12, 16, 89, 14 ,7, 8, W, None, None, ,   ,
01/16/2019 06:03, 15, 90, 13 ,7, 9, W, None, None, ,   ,
01/16/2019 05:58, 16, 90, 14 ,7, 9, W, None, None, ,   ,
01/16/2019 05:53, 16, 90, 14 ,7, 9, W, None, None, ,   ,
01/16/2019 05:43, 15, 89, 12 ,8, 9, W, None, None, ,   ,
01/16/2019 05:43, 15, 89, 12 ,8, 9, W, None, None, ,   ,
01/16/2019 05:33, 16, 89, 14 ,7, 7, W, None, None, ,   ,
01/16/2019 05:28, 16, 89, 14 ,6, 7, W, None, None, ,   ,
01/16/2019 05:23, 16, 89, 13 ,7, 7, W, None, None, ,   ,
01/16/2019 05:13, 16, 89, 13 ,7, 7, W, None, None, ,   ,
01/16/2019 05:13, 16, 89, 13 ,7, 7, W, None, None, ,   ,
01/16/2019 05:03, 16, 89, 14 ,6, 7, W, None, None, ,   ,
01/16/2019 04:58, 16, 89, 14 ,7, 7, W, None, None, ,   ,
01/16/2019 04:53, 16, 89, 14 ,7, 7, W, None, None, ,   ,
01/16/2019 04:43, 17, 89, 14 ,7, 8, W, None, None, ,   ,
01/16/2019 04:43, 17, 89, 14 ,7, 8, W, None, None, ,   ,
Change End Date:

Copyright © 1998-2015 Vaisala, Inc.
All Rights Reserved
Send comments about the data to:
SCAN Web ® is a registered trademark of Vaisala, Inc.
SCAN Web Version 6.0